»·PEaware :: N335AK KCRQ-KSAC

N335AK :: KCRQ-KSAC

FLIGHT INFORMATION

Flight Status: Arrived
Operator: Privately registered:
United States
More flights under this callsign
Pilot: Gabor H. (24209)
Aircraft: Unknown
(EPIC)
More flights by this aircraft type
Origin: KCRQ McClellan-Palomar
United States
Destination: KSAC Sacramento Executive
United States
More flights between these airports :: More routes between these airports
Route: +PADRZ2 EHF CZQ LIN
File this flight plan on PilotEdge
Remarks:
Altitude:
(Current/Filed)
30,000ft
Speed:
(Current/Filed)
325kts
Departed: 08-Nov-20 08:13 AM
Arrived: 08-Nov-20 09:50 AM
Distance/Time
Traveled:
383nm/1:36
Distance/Time
To Go:
Arrived

Flight Plot

Page will automatically refresh every two minutes.

Flight plan parsing failed; only flown route is shown


Map Options




Map Legend


Flown Route
Filed Route
Departure Airport
Arrival Airport
Navaid (VOR, NDB)
Fix

Horizontal Profiles

Position Reports

Time Latitude Longitude Heading Altitude Ground
Speed
08-Nov-20 08:01 33.127412 -117.275565 259 325ft 0kts
08-Nov-20 08:02 33.127412 -117.275565 259 325ft 0kts
08-Nov-20 08:03 33.127412 -117.275565 259 325ft 0kts
08-Nov-20 08:04 33.127412 -117.275565 259 325ft 0kts
08-Nov-20 08:05 33.127412 -117.275565 259 325ft 0kts
08-Nov-20 08:06 33.127412 -117.275565 259 325ft 0kts
08-Nov-20 08:07 33.127412 -117.275565 259 325ft 0kts
08-Nov-20 08:08 33.127412 -117.275565 259 325ft 0kts
08-Nov-20 08:09 33.128511 -117.273374 78 326ft 5kts
08-Nov-20 08:10 33.128547 -117.273150 80 326ft 0kts
08-Nov-20 08:11 33.129432 -117.272780 258 327ft 0kts
08-Nov-20 08:12 33.123679 -117.303776 256 1410ft 177kts
08-Nov-20 08:13 33.109269 -117.371298 257 2978ft 239kts
08-Nov-20 08:14 33.091823 -117.443439 257 5429ft 221kts
08-Nov-20 08:15 33.071439 -117.521019 257 5983ft 264kts
08-Nov-20 08:16 33.059325 -117.596975 274 7896ft 206kts
08-Nov-20 08:17 33.061172 -117.662815 272 10980ft 199kts
08-Nov-20 08:18 33.066633 -117.727707 302 13716ft 208kts
08-Nov-20 08:19 33.109334 -117.775684 310 16262ft 215kts
08-Nov-20 08:20 33.154933 -117.822334 310 18597ft 220kts
08-Nov-20 08:21 33.201861 -117.869740 311 20552ft 223kts
08-Nov-20 08:22 33.250369 -117.917081 311 22010ft 227kts
08-Nov-20 08:23 33.299488 -117.965056 311 22922ft 236kts
08-Nov-20 08:24 33.353242 -118.017600 312 22929ft 259kts
08-Nov-20 08:25 33.410146 -118.073312 312 22926ft 268kts
08-Nov-20 08:26 33.467177 -118.129211 311 23568ft 251kts
08-Nov-20 08:27 33.518032 -118.179242 310 24821ft 231kts
08-Nov-20 08:28 33.568062 -118.228523 311 25512ft 232kts
08-Nov-20 08:29 33.627058 -118.264293 322 26470ft 237kts
08-Nov-20 08:30 33.686151 -118.296929 322 27429ft 231kts
08-Nov-20 08:31 33.743586 -118.328618 321 28377ft 224kts
08-Nov-20 08:32 33.800146 -118.357817 322 29318ft 217kts
08-Nov-20 08:33 33.855132 -118.385623 322 29918ft 220kts
08-Nov-20 08:34 33.914113 -118.415400 323 29915ft 237kts
08-Nov-20 08:35 33.976307 -118.446832 323 29911ft 247kts
08-Nov-20 08:36 34.046317 -118.466532 337 29905ft 269kts
08-Nov-20 08:37 34.120849 -118.478050 337 29905ft 272kts
08-Nov-20 08:38 34.196138 -118.489615 337 29907ft 274kts
08-Nov-20 08:39 34.271775 -118.501261 337 29897ft 275kts
08-Nov-20 08:40 34.347273 -118.512903 337 29896ft 275kts
08-Nov-20 08:41 34.423099 -118.524610 337 29897ft 274kts
08-Nov-20 08:42 34.498612 -118.536308 337 29894ft 275kts
08-Nov-20 08:43 34.574466 -118.548066 337 29895ft 275kts
08-Nov-20 08:44 34.650152 -118.559827 337 29876ft 275kts
08-Nov-20 08:45 34.725994 -118.571638 337 29852ft 275kts
08-Nov-20 08:46 34.801781 -118.583446 337 29835ft 275kts
08-Nov-20 08:47 34.877480 -118.595262 337 29824ft 275kts
08-Nov-20 08:48 34.953438 -118.607199 339 29822ft 278kts
08-Nov-20 08:49 35.025573 -118.631740 315 29831ft 263kts
08-Nov-20 08:50 35.083354 -118.688241 312 29843ft 271kts
08-Nov-20 08:51 35.142110 -118.747768 312 29855ft 276kts
08-Nov-20 08:52 35.201365 -118.807977 312 29873ft 279kts
08-Nov-20 08:53 35.260745 -118.868422 313 29876ft 276kts
08-Nov-20 08:54 35.318823 -118.927669 314 29876ft 268kts
08-Nov-20 08:55 35.375018 -118.985096 315 29875ft 258kts
08-Nov-20 08:56 35.428959 -119.040334 316 29870ft 248kts
08-Nov-20 08:57 35.481207 -119.093658 322 29863ft 243kts
08-Nov-20 08:58 35.543473 -119.126934 330 29868ft 244kts
08-Nov-20 08:59 35.606123 -119.158579 330 29868ft 242kts
08-Nov-20 09:00 35.668368 -119.190047 330 29867ft 241kts
08-Nov-20 09:01 35.730328 -119.221386 330 29864ft 241kts
08-Nov-20 09:03 35.792138 -119.252692 330 29864ft 240kts
08-Nov-20 09:04 35.853677 -119.283943 329 29863ft 240kts
08-Nov-20 09:05 35.915266 -119.315277 330 29860ft 240kts
08-Nov-20 09:06 35.976916 -119.346671 330 29858ft 239kts
08-Nov-20 09:07 36.038225 -119.377953 330 29849ft 239kts
08-Nov-20 09:08 36.099642 -119.409344 329 29846ft 238kts
08-Nov-20 09:09 36.160966 -119.440745 329 29856ft 240kts
08-Nov-20 09:10 36.222817 -119.472467 330 29853ft 241kts
08-Nov-20 09:11 36.284688 -119.504248 330 29867ft 240kts
08-Nov-20 09:12 36.346447 -119.536047 330 29866ft 241kts
08-Nov-20 09:13 36.408090 -119.567806 329 29864ft 240kts
08-Nov-20 09:14 36.469887 -119.599712 330 29862ft 240kts
08-Nov-20 09:15 36.531571 -119.631632 330 29857ft 240kts
08-Nov-20 09:16 36.593143 -119.663537 329 29863ft 241kts
08-Nov-20 09:16 36.644694 -119.690319 330 29856ft 242kts
08-Nov-20 09:18 36.717128 -119.727967 329 29851ft 242kts
08-Nov-20 09:18 36.769057 -119.755012 330 29851ft 242kts
08-Nov-20 09:20 36.841438 -119.792774 329 29849ft 242kts
08-Nov-20 09:20 36.891291 -119.823016 319 29859ft 236kts
08-Nov-20 09:22 36.951796 -119.881299 318 29849ft 235kts
08-Nov-20 09:22 36.994599 -119.923277 318 29845ft 237kts
08-Nov-20 09:23 37.046955 -119.974719 318 29847ft 243kts
08-Nov-20 09:24 37.100886 -120.027820 318 29849ft 251kts
08-Nov-20 09:25 37.156883 -120.083044 318 29856ft 260kts
08-Nov-20 09:26 37.214285 -120.139776 318 29850ft 265kts
08-Nov-20 09:27 37.272316 -120.197247 319 29840ft 267kts
08-Nov-20 09:28 37.334947 -120.259389 318 28389ft 303kts
08-Nov-20 09:29 37.402964 -120.327034 318 26793ft 319kts
08-Nov-20 09:30 37.473633 -120.397484 317 25020ft 328kts
08-Nov-20 09:31 37.545185 -120.469005 317 23197ft 331kts
08-Nov-20 09:32 37.617522 -120.541501 317 21371ft 335kts
08-Nov-20 09:33 37.690050 -120.614356 317 19545ft 332kts
08-Nov-20 09:34 37.760631 -120.685461 316 18829ft 315kts
08-Nov-20 09:35 37.829762 -120.755287 316 17821ft 329kts
08-Nov-20 09:36 37.900940 -120.827305 316 15893ft 325kts
08-Nov-20 09:37 37.970935 -120.898345 316 13993ft 319kts
08-Nov-20 09:38 38.039413 -120.968020 317 12198ft 316kts
08-Nov-20 09:39 38.102097 -121.034376 315 10423ft 264kts
08-Nov-20 09:40 38.155719 -121.093984 317 8914ft 253kts
08-Nov-20 09:41 38.209605 -121.153957 319 7458ft 259kts
08-Nov-20 09:42 38.262880 -121.213371 319 6058ft 253kts
08-Nov-20 09:43 38.316058 -121.272808 319 4709ft 251kts
08-Nov-20 09:44 38.365554 -121.328243 319 3605ft 230kts
08-Nov-20 09:45 38.412377 -121.377588 323 2290ft 199kts
08-Nov-20 09:46 38.454298 -121.413003 324 1223ft 139kts
08-Nov-20 09:47 38.480046 -121.441772 312 947ft 123kts
08-Nov-20 09:48 38.500252 -121.470312 312 439ft 96kts
08-Nov-20 09:49 38.514317 -121.490515 270 25ft 24kts
08-Nov-20 09:50 38.513606 -121.496668 329 23ft 12kts
08-Nov-20 09:51 38.514872 -121.498451 224 23ft 0kts

Navigation Log

Ident Type
Flight plan parsing failed, navigation log unavailable